createdAt,value
2018-12-01T00:00:51.717Z,6.14
2018-12-01T00:03:21.543Z,6.09
2018-12-01T00:05:52.066Z,6.03
2018-12-01T00:08:21.665Z,6.01
2018-12-01T00:10:51.496Z,5.97
2018-12-01T00:13:21.285Z,5.97
2018-12-01T00:15:51.059Z,5.97
2018-12-01T00:18:22.044Z,5.96
2018-12-01T00:20:51.886Z,5.97
2018-12-01T00:23:21.704Z,5.96
2018-12-01T00:25:51.704Z,5.93
2018-12-01T00:28:22.728Z,5.94
2018-12-01T00:30:52.349Z,5.92
2018-12-01T00:33:23.424Z,5.92
2018-12-01T00:35:53.323Z,5.93
2018-12-01T00:38:23.647Z,5.92
2018-12-01T00:40:53.600Z,5.90
2018-12-01T00:43:27.944Z,5.90
2018-12-01T00:45:56.566Z,5.87
2018-12-01T00:48:27.019Z,5.87
2018-12-01T00:50:57.967Z,5.88
2018-12-01T00:53:27.811Z,5.85
2018-12-01T00:55:58.294Z,5.87
2018-12-01T00:58:27.943Z,5.88
2018-12-01T01:00:58.307Z,5.81
2018-12-01T01:03:28.083Z,5.78
2018-12-01T01:05:57.955Z,5.75
2018-12-01T01:08:28.238Z,5.73
2018-12-01T01:10:58.793Z,5.72
2018-12-01T01:13:28.630Z,5.68
2018-12-01T01:15:58.604Z,5.64
2018-12-01T01:18:28.211Z,5.59
2018-12-01T01:20:58.107Z,5.57
2018-12-01T01:23:28.084Z,5.55
2018-12-01T01:25:58.882Z,5.51
2018-12-01T01:28:29.276Z,5.49
2018-12-01T01:30:59.303Z,5.49
2018-12-01T01:33:32.657Z,5.49
2018-12-01T01:36:02.623Z,5.52
2018-12-01T01:38:32.766Z,5.52
2018-12-01T01:41:09.289Z,5.55
2018-12-01T01:43:39.247Z,5.55
2018-12-01T01:46:09.667Z,5.57
2018-12-01T01:48:39.383Z,5.61
2018-12-01T01:51:09.016Z,5.67
2018-12-01T01:53:39.510Z,5.64
2018-12-01T01:56:09.722Z,5.58
2018-12-01T01:58:40.238Z,5.54
2018-12-01T02:01:10.357Z,5.54
2018-12-01T02:03:40.105Z,5.54
2018-12-01T02:06:11.824Z,5.51
2018-12-01T02:08:43.577Z,5.46
2018-12-01T02:11:16.156Z,5.44
2018-12-01T02:13:46.377Z,5.41
2018-12-01T02:16:16.302Z,5.39
2018-12-01T02:18:46.284Z,5.38
2018-12-01T02:21:16.172Z,5.35
2018-12-01T02:23:45.983Z,5.38
2018-12-01T02:26:15.907Z,5.39
2018-12-01T02:28:45.978Z,5.45
2018-12-01T02:31:16.228Z,5.50
2018-12-01T02:33:46.865Z,5.50
2018-12-01T02:36:16.702Z,5.49
2018-12-01T02:38:46.448Z,5.52
2018-12-01T02:41:16.586Z,5.53
2018-12-01T02:44:08.805Z,5.54
2018-12-01T02:47:06.797Z,5.50
2018-12-01T02:49:36.900Z,5.54
2018-12-01T02:52:07.610Z,5.46
2018-12-01T02:54:37.255Z,5.39
2018-12-01T02:57:07.200Z,5.37
2018-12-01T02:59:37.884Z,5.30
2018-12-01T03:02:07.926Z,5.23
2018-12-01T03:04:38.494Z,5.20
2018-12-01T03:07:08.508Z,5.17
2018-12-01T03:09:38.350Z,5.20
2018-12-01T03:12:07.888Z,5.21
2018-12-01T03:14:37.878Z,5.23
2018-12-01T03:17:07.683Z,5.28
2018-12-01T03:19:37.500Z,5.34
2018-12-01T03:22:07.069Z,5.41
2018-12-01T03:24:36.866Z,5.49
2018-12-01T03:27:07.704Z,5.63
2018-12-01T03:29:37.790Z,5.69
2018-12-01T03:32:07.919Z,5.80
2018-12-01T03:34:37.792Z,5.90
2018-12-01T03:37:07.788Z,6.02
2018-12-01T03:39:37.898Z,6.11
2018-12-01T03:42:07.604Z,6.15
2018-12-01T03:44:37.377Z,6.19
2018-12-01T03:47:07.622Z,6.21
2018-12-01T03:49:37.461Z,6.22
2018-12-01T03:52:09.078Z,6.24
2018-12-01T03:54:39.044Z,6.27
2018-12-01T03:57:09.074Z,6.29
2018-12-01T03:59:39.305Z,6.33
2018-12-01T04:02:09.424Z,6.35
2018-12-01T04:04:39.328Z,6.36
2018-12-01T04:07:09.116Z,6.35
2018-12-01T04:09:38.698Z,6.35
2018-12-01T04:12:08.335Z,6.38
2018-12-01T04:14:38.316Z,6.35
2018-12-01T04:17:08.710Z,6.36
2018-12-01T04:19:39.610Z,6.40
2018-12-01T04:22:09.215Z,6.43
2018-12-01T04:24:39.129Z,6.45
2018-12-01T04:27:08.879Z,6.49
2018-12-01T04:29:38.977Z,6.46
2018-12-01T04:32:08.691Z,6.48
2018-12-01T04:34:38.654Z,6.47
2018-12-01T04:37:09.224Z,6.50
2018-12-01T04:39:39.920Z,6.52
2018-12-01T04:42:10.131Z,6.55
2018-12-01T04:44:40.441Z,6.56
2018-12-01T04:47:11.169Z,6.54
2018-12-01T04:49:40.487Z,6.57
2018-12-01T04:52:09.830Z,6.61
2018-12-01T04:54:39.231Z,6.59
2018-12-01T04:57:08.606Z,6.61
2018-12-01T04:59:38.049Z,6.65
2018-12-01T05:02:07.332Z,6.64
2018-12-01T05:04:36.766Z,6.66
2018-12-01T05:07:06.115Z,6.69
2018-12-01T05:09:35.480Z,6.69
2018-12-01T05:12:05.362Z,6.72
2018-12-01T05:14:34.826Z,6.73
2018-12-01T05:17:04.252Z,6.80
2018-12-01T05:19:33.584Z,6.83
2018-12-01T05:22:02.938Z,6.82
2018-12-01T05:24:32.284Z,6.86
2018-12-01T05:27:01.690Z,6.88
2018-12-01T05:29:31.170Z,6.90
2018-12-01T05:32:00.505Z,6.94
2018-12-01T05:34:29.912Z,6.88
2018-12-01T05:36:59.360Z,6.85
2018-12-01T05:39:28.702Z,6.82
2018-12-01T05:41:58.069Z,6.79
2018-12-01T05:44:27.571Z,6.79
2018-12-01T05:46:56.910Z,6.79
2018-12-01T05:49:26.419Z,6.80
2018-12-01T05:51:55.768Z,6.80
2018-12-01T05:54:25.119Z,6.85
2018-12-01T05:56:54.697Z,6.80
2018-12-01T05:59:24.253Z,6.81
2018-12-01T06:01:53.540Z,6.78
2018-12-01T06:04:22.939Z,6.78
2018-12-01T06:06:52.350Z,6.76
2018-12-01T06:09:21.732Z,6.69
2018-12-01T06:11:51.068Z,6.65
2018-12-01T06:14:20.566Z,6.57
2018-12-01T06:16:49.975Z,6.52
2018-12-01T06:19:19.340Z,6.41
2018-12-01T06:21:48.791Z,6.32
2018-12-01T06:24:18.187Z,6.24
2018-12-01T06:26:47.545Z,6.17
2018-12-01T06:29:17.104Z,6.09
2018-12-01T06:31:46.484Z,6.02
2018-12-01T06:34:15.808Z,5.99
2018-12-01T06:36:45.192Z,5.99
2018-12-01T06:39:14.671Z,6.04
2018-12-01T06:41:44.106Z,6.10
2018-12-01T06:44:13.445Z,6.11
2018-12-01T06:46:42.827Z,6.14
2018-12-01T06:49:12.128Z,6.15
2018-12-01T06:51:41.480Z,6.16
2018-12-01T06:54:10.828Z,6.20
2018-12-01T06:56:40.334Z,6.24
2018-12-01T06:59:09.819Z,6.24
2018-12-01T07:01:39.194Z,6.24
2018-12-01T07:04:08.625Z,6.25
2018-12-01T07:06:37.960Z,6.25
2018-12-01T07:09:10.558Z,6.22
2018-12-01T07:11:40.076Z,6.20
2018-12-01T07:14:09.521Z,6.17
2018-12-01T07:16:38.898Z,6.17
2018-12-01T07:19:17.774Z,6.16
2018-12-01T07:21:47.154Z,6.16
2018-12-01T07:24:16.441Z,6.17
2018-12-01T07:26:45.781Z,6.20
2018-12-01T07:29:15.179Z,6.21
2018-12-01T07:31:47.426Z,6.24
2018-12-01T07:34:14.057Z,6.26
2018-12-01T07:36:43.870Z,6.30
2018-12-01T07:39:13.199Z,6.36
2018-12-01T07:41:42.684Z,6.41
2018-12-01T07:44:11.999Z,6.49
2018-12-01T07:46:41.393Z,6.55
2018-12-01T07:49:10.733Z,6.56
2018-12-01T07:51:40.139Z,6.56
2018-12-01T07:54:09.595Z,6.58
2018-12-01T07:56:39.080Z,6.61
2018-12-01T07:59:08.525Z,6.63
2018-12-01T08:01:37.921Z,6.66
2018-12-01T08:04:07.394Z,6.68
2018-12-01T08:06:36.817Z,6.72
2018-12-01T08:09:07.999Z,6.96
2018-12-01T08:11:37.391Z,7.13
2018-12-01T08:14:06.789Z,7.01
2018-12-01T08:16:36.109Z,6.95
2018-12-01T08:19:05.717Z,6.92
2018-12-01T08:21:35.054Z,6.89
2018-12-01T08:24:04.407Z,6.92
2018-12-01T08:26:33.771Z,6.94
2018-12-01T08:29:03.151Z,6.89
2018-12-01T08:31:32.509Z,6.86
2018-12-01T08:34:01.961Z,6.80
2018-12-01T08:36:31.377Z,6.78
2018-12-01T08:39:00.759Z,6.76
2018-12-01T08:41:30.163Z,6.80
2018-12-01T08:43:59.538Z,6.88
2018-12-01T08:46:29.117Z,6.94
2018-12-01T08:48:58.513Z,6.89
2018-12-01T08:51:27.947Z,6.91
2018-12-01T08:53:57.311Z,6.94
2018-12-01T08:56:26.751Z,6.99
2018-12-01T08:58:56.164Z,7.09
2018-12-01T09:01:25.559Z,7.17
2018-12-01T09:03:54.901Z,7.20
2018-12-01T09:06:24.307Z,7.21
2018-12-01T09:08:53.879Z,7.27
2018-12-01T09:11:23.168Z,7.30
2018-12-01T09:13:52.553Z,7.27
2018-12-01T09:16:21.932Z,7.23
2018-12-01T09:18:52.168Z,7.17
2018-12-01T09:21:21.009Z,7.14
2018-12-01T09:23:50.797Z,7.14
2018-12-01T09:26:20.159Z,7.22
2018-12-01T09:28:50.178Z,7.27
2018-12-01T09:31:19.563Z,7.31
2018-12-01T09:33:48.981Z,7.36
2018-12-01T09:36:18.318Z,7.34
2018-12-01T09:38:47.629Z,7.37
2018-12-01T09:41:17.159Z,7.46
2018-12-01T09:43:46.501Z,7.51
2018-12-01T09:46:15.815Z,7.62
2018-12-01T09:48:45.145Z,7.72
2018-12-01T09:51:14.563Z,7.84
2018-12-01T09:53:44.024Z,7.88
2018-12-01T09:56:13.487Z,7.93
2018-12-01T09:58:42.806Z,8.08
2018-12-01T10:01:12.310Z,8.11
2018-12-01T10:03:41.751Z,8.07
2018-12-01T10:06:11.084Z,8.07
2018-12-01T10:08:40.432Z,8.11
2018-12-01T10:11:09.864Z,8.15
2018-12-01T10:13:39.426Z,8.15
2018-12-01T10:16:08.768Z,8.18
2018-12-01T10:18:38.163Z,8.18
2018-12-01T10:21:07.485Z,8.15
2018-12-01T10:23:36.833Z,8.09
2018-12-01T10:26:06.581Z,8.01
2018-12-01T10:28:35.913Z,8.01
2018-12-01T10:31:08.530Z,8.01
2018-12-01T10:33:40.829Z,8.04
2018-12-01T10:36:10.267Z,8.10
2018-12-01T10:38:39.706Z,8.18
2018-12-01T10:41:09.073Z,8.32
2018-12-01T10:43:38.416Z,8.34
2018-12-01T10:46:07.862Z,8.44
2018-12-01T10:48:37.147Z,8.55
2018-12-01T10:51:07.061Z,8.57
2018-12-01T10:53:36.452Z,8.63
2018-12-01T10:56:06.059Z,8.76
2018-12-01T10:58:35.513Z,9.00
2018-12-01T11:01:23.044Z,9.00
2018-12-01T11:03:52.792Z,9.03
2018-12-01T11:06:22.316Z,9.17
2018-12-01T11:08:51.909Z,9.17
2018-12-01T11:11:21.241Z,9.34
2018-12-01T11:13:50.768Z,9.43
2018-12-01T11:16:20.129Z,9.93
2018-12-01T11:18:49.563Z,10.57
2018-12-01T11:21:19.420Z,10.55
2018-12-01T11:23:49.045Z,10.60
2018-12-01T11:26:18.850Z,10.63
2018-12-01T11:28:48.318Z,10.46
2018-12-01T11:31:17.867Z,10.53
2018-12-01T11:33:47.433Z,10.81
2018-12-01T11:36:16.937Z,11.09
2018-12-01T11:38:46.330Z,11.01
2018-12-01T11:41:15.799Z,11.73
2018-12-01T11:43:45.442Z,11.97
2018-12-01T11:46:14.802Z,12.45
2018-12-01T11:48:44.183Z,12.05
2018-12-01T11:51:13.521Z,12.19
2018-12-01T11:53:42.993Z,12.30
2018-12-01T11:56:12.335Z,12.30
2018-12-01T11:58:41.881Z,12.77
2018-12-01T12:01:11.240Z,12.78
2018-12-01T12:03:40.669Z,13.50
2018-12-01T12:06:10.101Z,13.80
2018-12-01T12:08:39.471Z,14.20
2018-12-01T12:11:08.725Z,14.61
2018-12-01T12:13:38.056Z,14.25
2018-12-01T12:16:07.399Z,14.26
2018-12-01T12:18:36.781Z,14.42
2018-12-01T12:21:06.231Z,13.92
2018-12-01T12:23:35.707Z,13.65
2018-12-01T12:26:04.955Z,13.67
2018-12-01T12:28:34.449Z,13.63
2018-12-01T12:31:03.831Z,13.17
2018-12-01T12:33:33.210Z,13.14
2018-12-01T12:36:02.585Z,13.72
2018-12-01T12:38:32.081Z,14.06
2018-12-01T12:41:01.488Z,14.09
2018-12-01T12:43:30.987Z,13.55
2018-12-01T12:46:00.365Z,13.42
2018-12-01T12:48:29.779Z,13.79
2018-12-01T12:50:59.246Z,13.46
2018-12-01T12:53:28.577Z,13.51
2018-12-01T12:55:58.173Z,14.09
2018-12-01T12:58:27.513Z,13.55
2018-12-01T13:00:57.079Z,13.46
2018-12-01T13:03:26.479Z,13.52
2018-12-01T13:05:56.194Z,13.48
2018-12-01T13:08:25.779Z,13.25
2018-12-01T13:10:55.657Z,12.45
2018-12-01T13:13:25.124Z,12.68
2018-12-01T13:15:54.769Z,13.30
2018-12-01T13:18:24.126Z,13.41
2018-12-01T13:20:55.657Z,13.67
2018-12-01T13:23:25.284Z,13.49
2018-12-01T13:25:54.633Z,13.46
2018-12-01T13:28:24.999Z,13.33
2018-12-01T13:30:59.159Z,13.16
2018-12-01T13:33:28.894Z,13.43
2018-12-01T13:35:58.469Z,13.10
2018-12-01T13:38:28.014Z,13.29
2018-12-01T13:40:57.393Z,12.97
2018-12-01T13:43:26.868Z,12.80
2018-12-01T13:45:56.202Z,12.25
2018-12-01T13:48:25.730Z,11.99
2018-12-01T13:50:55.074Z,11.90
2018-12-01T13:53:24.624Z,11.87
2018-12-01T13:55:54.290Z,11.46
2018-12-01T13:58:23.607Z,11.24
2018-12-01T14:00:53.087Z,11.17
2018-12-01T14:03:22.457Z,11.25
2018-12-01T14:05:51.709Z,11.26
2018-12-01T14:08:21.007Z,11.25
2018-12-01T14:10:51.335Z,11.14
2018-12-01T14:13:20.875Z,10.92
2018-12-01T14:15:50.221Z,11.01
2018-12-01T14:18:19.553Z,10.99
2018-12-01T14:20:48.861Z,10.88
2018-12-01T14:23:18.238Z,10.68
2018-12-01T14:25:48.146Z,10.42
2018-12-01T14:28:17.510Z,10.40
2018-12-01T14:30:46.810Z,10.19
2018-12-01T14:33:16.628Z,10.06
2018-12-01T14:35:45.965Z,9.80
2018-12-01T14:38:18.037Z,9.67
2018-12-01T14:40:54.611Z,9.56
2018-12-01T14:43:24.036Z,9.40
2018-12-01T14:45:53.535Z,9.25
2018-12-01T14:48:23.245Z,9.05
2018-12-01T14:50:52.586Z,9.00
2018-12-01T14:53:22.367Z,8.76
2018-12-01T14:55:52.082Z,8.76
2018-12-01T14:58:21.620Z,8.66
2018-12-01T15:00:50.953Z,8.53
2018-12-01T15:03:20.556Z,8.38
2018-12-01T15:05:50.398Z,8.31
2018-12-01T15:08:20.090Z,8.21
2018-12-01T15:10:49.557Z,8.03
2018-12-01T15:13:18.899Z,8.02
2018-12-01T15:15:48.351Z,7.92
2018-12-01T15:18:19.773Z,7.83
2018-12-01T15:20:47.562Z,7.83
2018-12-01T15:23:16.944Z,7.74
2018-12-01T15:25:46.383Z,7.64
2018-12-01T15:28:15.948Z,7.55
2018-12-01T15:30:45.515Z,7.48
2018-12-01T15:33:16.115Z,7.38
2018-12-01T15:35:46.697Z,7.38
2018-12-01T15:38:16.640Z,7.29
2018-12-01T15:40:55.203Z,7.22
2018-12-01T15:43:24.549Z,7.09
2018-12-01T15:45:53.916Z,7.09
2018-12-01T15:48:23.770Z,7.08
2018-12-01T15:50:53.220Z,7.06
2018-12-01T15:53:22.656Z,7.06
2018-12-01T15:55:52.011Z,7.01
2018-12-01T15:58:21.548Z,6.96
2018-12-01T16:00:51.178Z,6.92
2018-12-01T16:03:20.677Z,6.87
2018-12-01T16:05:50.984Z,6.84
2018-12-01T16:08:20.317Z,6.85
2018-12-01T16:10:49.670Z,6.84
2018-12-01T16:13:23.258Z,6.84
2018-12-01T16:16:03.494Z,6.87
2018-12-01T16:18:32.868Z,6.87
2018-12-01T16:21:02.360Z,6.87
2018-12-01T16:23:31.806Z,6.85
2018-12-01T16:26:01.295Z,6.82
2018-12-01T16:28:30.770Z,6.82
2018-12-01T16:31:00.161Z,6.82
2018-12-01T16:33:29.545Z,6.82
2018-12-01T16:35:59.032Z,6.78
2018-12-01T16:38:31.248Z,6.77
2018-12-01T16:41:02.615Z,6.76
2018-12-01T16:43:34.902Z,6.75
2018-12-01T16:46:04.273Z,6.73
2018-12-01T16:48:33.676Z,6.72
2018-12-01T16:51:03.426Z,6.75
2018-12-01T16:53:32.788Z,6.77
2018-12-01T16:56:02.494Z,6.78
2018-12-01T16:58:31.864Z,6.73
2018-12-01T17:01:01.499Z,6.73
2018-12-01T17:03:31.126Z,6.69
2018-12-01T17:06:03.245Z,6.71
2018-12-01T17:08:32.630Z,6.67
2018-12-01T17:11:01.998Z,6.69
2018-12-01T17:13:31.387Z,6.71
2018-12-01T17:16:00.761Z,6.70
2018-12-01T17:18:30.227Z,6.66
2018-12-01T17:20:59.960Z,6.69
2018-12-01T17:23:29.724Z,6.74
2018-12-01T17:25:59.231Z,6.76
2018-12-01T17:28:29.082Z,6.83
2018-12-01T17:30:58.782Z,6.89
2018-12-01T17:33:28.091Z,6.92
2018-12-01T17:35:57.547Z,6.97
2018-12-01T17:38:27.404Z,7.06
2018-12-01T17:41:17.237Z,7.06
2018-12-01T17:44:01.294Z,7.10
2018-12-01T17:46:30.791Z,7.14
2018-12-01T17:49:00.268Z,7.17
2018-12-01T17:51:29.696Z,7.18
2018-12-01T17:54:05.169Z,7.16
2018-12-01T17:56:34.568Z,7.18
2018-12-01T17:59:03.922Z,7.18
2018-12-01T18:01:33.479Z,7.15
2018-12-01T18:04:02.995Z,7.12
2018-12-01T18:06:32.770Z,7.14
2018-12-01T18:09:02.181Z,7.14
2018-12-01T18:11:31.657Z,7.17
2018-12-01T18:14:01.163Z,7.19
2018-12-01T18:16:30.622Z,7.20
2018-12-01T18:19:00.098Z,7.20
2018-12-01T18:21:29.681Z,7.24
2018-12-01T18:23:59.231Z,7.21
2018-12-01T18:26:28.842Z,7.21
2018-12-01T18:28:58.469Z,7.18
2018-12-01T18:31:31.518Z,7.16
2018-12-01T18:34:12.630Z,7.17
2018-12-01T18:36:41.994Z,7.15
2018-12-01T18:39:13.784Z,7.16
2018-12-01T18:41:43.171Z,7.12
2018-12-01T18:44:12.631Z,7.12
2018-12-01T18:46:42.113Z,7.11
2018-12-01T18:49:11.495Z,7.10
2018-12-01T18:51:40.882Z,7.10
2018-12-01T18:54:10.350Z,7.08
2018-12-01T18:56:40.004Z,7.08
2018-12-01T18:59:09.389Z,7.09
2018-12-01T19:01:38.795Z,7.11
2018-12-01T19:04:08.397Z,7.10
2018-12-01T19:06:37.903Z,7.15
2018-12-01T19:09:08.557Z,7.17
2018-12-01T19:11:37.954Z,7.17
2018-12-01T19:14:07.623Z,7.24
2018-12-01T19:16:37.280Z,7.24
2018-12-01T19:19:06.807Z,7.25
2018-12-01T19:21:36.410Z,7.29
2018-12-01T19:24:06.111Z,7.26
2018-12-01T19:26:35.605Z,7.30
2018-12-01T19:29:05.520Z,7.32
2018-12-01T19:31:35.105Z,7.33
2018-12-01T19:34:04.841Z,7.34
2018-12-01T19:36:34.374Z,7.36
2018-12-01T19:39:04.483Z,7.35
2018-12-01T19:41:34.156Z,7.35
2018-12-01T19:44:03.704Z,7.35
2018-12-01T19:46:33.581Z,7.39
2018-12-01T19:49:03.332Z,7.40
2018-12-01T19:51:32.805Z,7.39
2018-12-01T19:54:03.514Z,7.39
2018-12-01T19:56:33.088Z,7.39
2018-12-01T19:59:02.736Z,7.36
2018-12-01T20:01:32.113Z,7.38
2018-12-01T20:04:01.457Z,7.39
2018-12-01T20:06:30.891Z,7.38
2018-12-01T20:09:00.883Z,7.39
2018-12-01T20:11:30.272Z,7.37
2018-12-01T20:14:01.530Z,7.37
2018-12-01T20:16:36.327Z,7.36
2018-12-01T20:19:06.712Z,7.39
2018-12-01T20:21:36.018Z,7.40
2018-12-01T20:24:06.381Z,7.44
2018-12-01T20:26:35.897Z,7.51
2018-12-01T20:29:06.120Z,7.53
2018-12-01T20:31:35.748Z,7.54
2018-12-01T20:34:05.354Z,7.55
2018-12-01T20:36:47.306Z,7.56
2018-12-01T20:39:32.717Z,7.60
2018-12-01T20:42:02.164Z,7.85
2018-12-01T20:44:31.567Z,7.88
2018-12-01T20:47:00.920Z,7.78
2018-12-01T20:49:30.348Z,7.77
2018-12-01T20:51:59.862Z,7.73
2018-12-01T20:54:45.796Z,7.72
2018-12-01T20:57:29.614Z,7.69
2018-12-01T20:59:59.446Z,7.68
2018-12-01T21:02:28.848Z,7.67
2018-12-01T21:04:58.204Z,7.67
2018-12-01T21:07:27.679Z,7.64
2018-12-01T21:09:57.167Z,7.63
2018-12-01T21:12:26.618Z,7.60
2018-12-01T21:14:56.046Z,7.58
2018-12-01T21:17:25.503Z,7.61
2018-12-01T21:19:54.926Z,7.62
2018-12-01T21:22:24.289Z,7.65
2018-12-01T21:24:53.816Z,7.65
2018-12-01T21:27:23.202Z,7.65
2018-12-01T21:29:52.626Z,7.65
2018-12-01T21:32:22.684Z,7.65
2018-12-01T21:34:52.088Z,7.66
2018-12-01T21:37:21.507Z,7.67
2018-12-01T21:39:51.206Z,7.65
2018-12-01T21:42:20.644Z,7.66
2018-12-01T21:44:50.078Z,7.70
2018-12-01T21:47:19.789Z,7.73
2018-12-01T21:49:49.210Z,7.78
2018-12-01T21:52:18.573Z,7.80
2018-12-01T21:54:48.580Z,7.83
2018-12-01T21:57:18.047Z,7.85
2018-12-01T21:59:47.417Z,7.87
2018-12-01T22:02:17.359Z,7.87
2018-12-01T22:04:46.864Z,7.85
2018-12-01T22:07:16.293Z,7.87
2018-12-01T22:09:45.777Z,7.88
2018-12-01T22:12:15.226Z,7.87
2018-12-01T22:14:44.621Z,7.85
2018-12-01T22:17:13.923Z,7.83
2018-12-01T22:19:43.278Z,7.80
2018-12-01T22:22:12.658Z,7.79
2018-12-01T22:24:42.070Z,7.73
2018-12-01T22:27:11.386Z,7.72
2018-12-01T22:29:40.791Z,7.72
2018-12-01T22:32:10.378Z,7.69
2018-12-01T22:34:39.913Z,7.73
2018-12-01T22:37:09.208Z,7.74
2018-12-01T22:39:38.701Z,7.77
2018-12-01T22:42:08.394Z,7.86
2018-12-01T22:44:38.124Z,7.87
2018-12-01T22:47:07.761Z,7.94
2018-12-01T22:49:37.270Z,7.89
2018-12-01T22:52:07.178Z,8.01
2018-12-01T22:54:36.590Z,8.02
2018-12-01T22:57:06.638Z,8.02
2018-12-01T22:59:36.166Z,7.98
2018-12-01T23:02:06.434Z,7.91
2018-12-01T23:04:36.246Z,7.85
2018-12-01T23:07:05.871Z,7.79
2018-12-01T23:09:35.506Z,7.77
2018-12-01T23:12:04.840Z,7.73
2018-12-01T23:14:34.149Z,7.72
2018-12-01T23:17:03.468Z,7.74
2018-12-01T23:19:32.865Z,7.75
2018-12-01T23:22:02.926Z,7.81
2018-12-01T23:24:32.290Z,7.81
2018-12-01T23:27:01.744Z,7.83
2018-12-01T23:29:31.378Z,7.83
2018-12-01T23:32:00.902Z,7.88
2018-12-01T23:34:30.348Z,7.95
2018-12-01T23:37:00.440Z,7.98
2018-12-01T23:39:29.964Z,7.98
2018-12-01T23:42:04.905Z,7.96
2018-12-01T23:44:34.218Z,7.96
2018-12-01T23:47:03.718Z,8.00
2018-12-01T23:49:33.110Z,8.04
2018-12-01T23:52:02.479Z,8.06
2018-12-01T23:54:31.881Z,8.11
2018-12-01T23:57:01.232Z,8.17
2018-12-01T23:59:30.654Z,8.17
